This is the latest recevied weather packets stored in our database for station/object EA2KR-10. If no packets are shown the sender has not sent any weather packets the latest 10 day(s).
| Time | Temp. | Humidity | Pressure | Rain* | Wind** | Luminosity | Snow |
|---|---|---|---|---|---|---|---|
| 1777689938 | 16.67° C | 56% | 1030.4 hPa | - | - | - | - |
| 1777688138 | 16.67° C | 56% | 1030.5 hPa | - | - | - | - |
| 1777686338 | 16.67° C | 57% | 1030.6 hPa | - | - | - | - |
| 1777684537 | 16.67° C | 55% | 1030.6 hPa | - | - | - | - |
| 1777682737 | 17.22° C | 54% | 1030.9 hPa | - | - | - | - |
| 1777680937 | 17.22° C | 55% | 1030.9 hPa | - | - | - | - |
| 1777679136 | 17.22° C | 55% | 1031.1 hPa | - | - | - | - |
| 1777677339 | 17.22° C | 55% | 1031.3 hPa | - | - | - | - |
| 1777675539 | 17.78° C | 55% | 1031.3 hPa | - | - | - | - |
| 1777673738 | 17.78° C | 56% | 1031.6 hPa | - | - | - | - |
| 1777671938 | 18.33° C | 56% | 1031.4 hPa | - | - | - | - |
| 1777670138 | 18.33° C | 55% | 1031.3 hPa | - | - | - | - |
| 1777668338 | 18.89° C | 53% | 1031 hPa | - | - | - | - |
| 1777666538 | 18.89° C | 52% | 1030.9 hPa | - | - | - | - |
| 1777664738 | 19.44° C | 51% | 1030.7 hPa | - | - | - | - |
| 1777662938 | 19.44° C | 51% | 1030.3 hPa | - | - | - | - |
| 1777661138 | 20° C | 50% | 1030.3 hPa | - | - | - | - |
| 1777659338 | 21.67° C | 47% | 1029.9 hPa | - | - | - | - |
| 1777657538 | 22.22° C | 46% | 1029.3 hPa | - | - | - | - |
| 1777655737 | 23.33° C | 42% | 1029.4 hPa | - | - | - | - |
| 1777653937 | 22.78° C | 45% | 1029.6 hPa | - | - | - | - |
| 1777652137 | 26.11° C | 40% | 1029.5 hPa | - | - | - | - |
| 1777650337 | 24.44° C | 43% | 1029.5 hPa | - | - | - | - |
| 1777648537 | 28.33° C | 38% | 1029.5 hPa | - | - | - | - |
| 1777646737 | 26.11° C | 40% | 1029.7 hPa | - | - | - | - |
* Rain since midnight (hover to see other rain measurements)
** Current wind speed in m/s (hover to see current wind gust speed)